createdAt,value
2022-08-30T00:02:20.943Z,3.17
2022-08-30T00:04:48.278Z,3.28
2022-08-30T00:07:15.340Z,3.53
2022-08-30T00:09:42.337Z,3.10
2022-08-30T00:12:09.585Z,2.85
2022-08-30T00:14:36.440Z,3.20
2022-08-30T00:17:03.506Z,3.10
2022-08-30T00:19:30.204Z,3.45
2022-08-30T00:21:57.013Z,3.15
2022-08-30T00:24:23.719Z,2.80
2022-08-30T00:26:50.566Z,3.17
2022-08-30T00:29:17.329Z,2.97
2022-08-30T00:31:44.271Z,3.22
2022-08-30T00:34:11.066Z,2.90
2022-08-30T00:36:37.858Z,3.53
2022-08-30T00:39:05.531Z,3.05
2022-08-30T00:41:32.355Z,3.10
2022-08-30T00:44:00.848Z,3.03
2022-08-30T00:46:28.290Z,2.83
2022-08-30T00:48:56.415Z,2.80
2022-08-30T00:51:24.175Z,3.33
2022-08-30T00:53:57.007Z,2.67
2022-08-30T00:56:25.898Z,3.42
2022-08-30T00:58:57.350Z,3.10
2022-08-30T01:01:25.492Z,3.15
2022-08-30T01:03:53.548Z,3.58
2022-08-30T01:06:20.957Z,3.25
2022-08-30T01:08:48.478Z,3.25
2022-08-30T01:11:20.295Z,3.13
2022-08-30T01:13:50.497Z,3.10
2022-08-30T01:16:18.442Z,3.00
2022-08-30T01:18:45.693Z,3.10
2022-08-30T01:21:46.405Z,3.00
2022-08-30T01:24:14.371Z,3.08
2022-08-30T01:26:41.279Z,3.38
2022-08-30T01:29:13.015Z,3.40
2022-08-30T01:31:39.973Z,3.25
2022-08-30T01:34:08.140Z,3.03
2022-08-30T01:36:44.736Z,3.20
2022-08-30T01:39:15.791Z,3.00
2022-08-30T01:41:43.589Z,3.20
2022-08-30T01:44:12.198Z,3.20
2022-08-30T01:46:45.628Z,3.00
2022-08-30T01:49:16.785Z,3.20
2022-08-30T01:51:43.735Z,3.10
2022-08-30T01:54:10.829Z,2.80
2022-08-30T01:56:37.945Z,2.95
2022-08-30T01:59:06.049Z,3.20
2022-08-30T02:01:36.984Z,3.00
2022-08-30T02:04:05.205Z,3.38
2022-08-30T02:06:32.365Z,3.22
2022-08-30T02:08:59.517Z,3.47
2022-08-30T02:11:26.816Z,3.25
2022-08-30T02:13:53.789Z,3.33
2022-08-30T02:16:23.187Z,3.17
2022-08-30T02:18:51.605Z,3.50
2022-08-30T02:21:18.787Z,3.60
2022-08-30T02:23:45.808Z,3.53
2022-08-30T02:26:13.845Z,3.40
2022-08-30T02:28:42.905Z,3.70
2022-08-30T02:31:20.443Z,3.65
2022-08-30T02:33:50.323Z,3.30
2022-08-30T02:36:18.294Z,3.53
2022-08-30T02:38:45.269Z,4.07
2022-08-30T02:41:12.165Z,3.60
2022-08-30T02:43:38.958Z,3.92
2022-08-30T02:46:06.110Z,3.80
2022-08-30T02:48:32.887Z,3.90
2022-08-30T02:51:05.973Z,3.70
2022-08-30T02:53:36.969Z,3.53
2022-08-30T02:56:04.356Z,3.80
2022-08-30T02:58:31.563Z,3.63
2022-08-30T03:00:58.300Z,4.00
2022-08-30T03:03:25.755Z,4.25
2022-08-30T03:05:52.555Z,3.83
2022-08-30T03:08:19.361Z,4.03
2022-08-30T03:10:46.237Z,4.20
2022-08-30T03:13:13.058Z,4.00
2022-08-30T03:15:40.585Z,3.85
2022-08-30T03:18:07.919Z,3.65
2022-08-30T03:20:37.441Z,3.67
2022-08-30T03:23:04.837Z,4.05
2022-08-30T03:25:31.634Z,3.80
2022-08-30T03:27:58.421Z,4.38
2022-08-30T03:30:25.454Z,4.15
2022-08-30T03:32:52.684Z,4.05
2022-08-30T03:35:20.090Z,4.15
2022-08-30T03:37:47.359Z,4.40
2022-08-30T03:40:17.263Z,4.10
2022-08-30T03:42:46.794Z,4.63
2022-08-30T03:45:16.576Z,4.50
2022-08-30T03:47:44.184Z,4.13
2022-08-30T03:50:12.461Z,4.32
2022-08-30T03:52:39.165Z,4.00
2022-08-30T03:55:06.909Z,4.40
2022-08-30T03:57:33.871Z,4.10
2022-08-30T04:00:05.187Z,4.13
2022-08-30T04:02:38.539Z,4.40
2022-08-30T04:05:05.907Z,3.78
2022-08-30T04:07:32.682Z,3.80
2022-08-30T04:09:59.623Z,3.90
2022-08-30T04:12:26.984Z,4.20
2022-08-30T04:14:53.726Z,4.03
2022-08-30T04:17:20.473Z,3.80
2022-08-30T04:19:47.248Z,4.10
2022-08-30T04:22:13.994Z,4.35
2022-08-30T04:24:41.666Z,4.00
2022-08-30T04:27:09.040Z,3.78
2022-08-30T04:29:35.834Z,4.20
2022-08-30T04:32:02.925Z,4.25
2022-08-30T04:34:29.699Z,4.97
2022-08-30T04:36:56.421Z,4.30
2022-08-30T04:39:23.630Z,4.75
2022-08-30T04:41:50.341Z,4.28
2022-08-30T04:44:19.383Z,4.07
2022-08-30T04:46:46.916Z,3.80
2022-08-30T04:49:13.697Z,4.00
2022-08-30T04:51:40.824Z,4.28
2022-08-30T04:54:07.506Z,4.15
2022-08-30T04:56:34.854Z,4.28
2022-08-30T04:59:03.730Z,4.22
2022-08-30T05:01:37.197Z,3.87
2022-08-30T05:04:13.394Z,3.95
2022-08-30T05:06:40.217Z,4.25
2022-08-30T05:09:07.056Z,4.25
2022-08-30T05:11:33.773Z,4.03
2022-08-30T05:14:00.686Z,4.18
2022-08-30T05:16:27.750Z,4.28
2022-08-30T05:18:54.765Z,4.30
2022-08-30T05:21:26.647Z,4.15
2022-08-30T05:23:56.026Z,4.40
2022-08-30T05:26:25.868Z,4.40
2022-08-30T05:28:52.709Z,4.07
2022-08-30T05:31:26.152Z,4.57
2022-08-30T05:33:54.562Z,4.20
2022-08-30T05:36:26.298Z,4.32
2022-08-30T05:38:54.420Z,3.70
2022-08-30T05:41:22.371Z,3.92
2022-08-30T05:43:49.333Z,4.00
2022-08-30T05:46:19.647Z,3.95
2022-08-30T05:48:47.470Z,4.07
2022-08-30T05:51:18.281Z,3.97
2022-08-30T05:53:46.394Z,3.67
2022-08-30T05:56:16.094Z,4.53
2022-08-30T05:58:43.620Z,3.90
2022-08-30T06:01:25.771Z,4.78
2022-08-30T06:03:55.156Z,3.90
2022-08-30T06:06:22.287Z,4.07
2022-08-30T06:08:49.570Z,3.55
2022-08-30T06:11:22.414Z,3.70
2022-08-30T06:13:50.677Z,4.07
2022-08-30T06:16:20.010Z,3.80
2022-08-30T06:18:47.842Z,4.20
2022-08-30T06:21:25.400Z,3.70
2022-08-30T06:23:52.969Z,3.67
2022-08-30T06:26:19.754Z,3.55
2022-08-30T06:28:46.682Z,4.07
2022-08-30T06:31:16.850Z,3.53
2022-08-30T06:33:44.765Z,3.67
2022-08-30T06:36:16.116Z,4.00
2022-08-30T06:38:42.837Z,4.07
2022-08-30T06:41:12.346Z,3.90
2022-08-30T06:46:08.846Z,4.00
2022-08-30T06:48:35.605Z,3.83
2022-08-30T06:51:02.471Z,4.47
2022-08-30T06:53:31.010Z,4.40
2022-08-30T06:56:16.472Z,3.85
2022-08-30T06:58:44.743Z,4.00
2022-08-30T07:01:14.110Z,4.13
2022-08-30T07:03:40.909Z,4.35
2022-08-30T07:06:08.778Z,4.15
2022-08-30T07:08:36.457Z,4.45
2022-08-30T07:11:05.411Z,4.20
2022-08-30T07:13:32.682Z,3.95
2022-08-30T07:15:59.614Z,4.60
2022-08-30T07:18:45.317Z,4.53
2022-08-30T07:21:15.335Z,4.32
2022-08-30T07:23:48.321Z,4.80
2022-08-30T07:26:21.927Z,4.40
2022-08-30T07:28:49.001Z,4.38
2022-08-30T07:31:22.806Z,4.70
2022-08-30T07:33:50.952Z,4.32
2022-08-30T07:36:18.235Z,4.95
2022-08-30T07:38:46.662Z,4.65
2022-08-30T07:41:19.683Z,4.65
2022-08-30T07:43:47.057Z,4.85
2022-08-30T07:46:13.887Z,4.40
2022-08-30T07:48:41.217Z,4.70
2022-08-30T07:51:13.123Z,5.05
2022-08-30T07:53:39.976Z,4.93
2022-08-30T07:56:06.943Z,4.35
2022-08-30T07:58:34.132Z,4.90
2022-08-30T08:01:02.038Z,4.90
2022-08-30T08:03:29.958Z,5.50
2022-08-30T08:05:57.055Z,5.20
2022-08-30T08:08:23.884Z,4.90
2022-08-30T08:10:50.579Z,4.57
2022-08-30T08:13:17.618Z,5.30
2022-08-30T08:15:44.441Z,4.90
2022-08-30T08:18:11.333Z,4.80
2022-08-30T08:20:38.161Z,4.80
2022-08-30T08:23:04.962Z,5.45
2022-08-30T08:25:31.970Z,6.00
2022-08-30T08:27:59.283Z,6.00
2022-08-30T08:30:26.053Z,5.38
2022-08-30T08:32:52.975Z,5.97
2022-08-30T08:35:20.172Z,5.43
2022-08-30T08:37:46.887Z,5.85
2022-08-30T08:40:19.158Z,5.05
2022-08-30T08:42:59.306Z,5.45
2022-08-30T08:45:35.115Z,5.68
2022-08-30T08:48:03.205Z,5.60
2022-08-30T08:50:31.364Z,5.35
2022-08-30T08:53:46.224Z,5.10
2022-08-30T08:56:16.500Z,5.50
2022-08-30T08:58:48.817Z,5.45
2022-08-30T09:01:19.526Z,5.05
2022-08-30T09:03:47.450Z,5.22
2022-08-30T09:06:28.581Z,4.80
2022-08-30T09:08:55.762Z,5.43
2022-08-30T09:11:28.759Z,5.60
2022-08-30T09:13:55.896Z,5.05
2022-08-30T09:16:47.505Z,5.43
2022-08-30T09:19:36.918Z,5.32
2022-08-30T09:22:16.031Z,5.18
2022-08-30T09:24:50.199Z,5.32
2022-08-30T09:27:18.999Z,4.93
2022-08-30T09:30:11.267Z,4.95
2022-08-30T09:33:02.251Z,5.30
2022-08-30T09:35:37.085Z,5.10
2022-08-30T09:38:07.253Z,5.25
2022-08-30T09:40:37.466Z,5.28
2022-08-30T09:43:16.395Z,5.50
2022-08-30T09:45:47.445Z,4.70
2022-08-30T09:48:41.521Z,5.22
2022-08-30T09:51:11.657Z,4.53
2022-08-30T09:54:14.436Z,4.78
2022-08-30T09:56:59.272Z,5.05
2022-08-30T09:59:31.799Z,4.95
2022-08-30T10:02:30.264Z,4.97
2022-08-30T10:05:12.151Z,4.70
2022-08-30T10:08:13.058Z,4.28
2022-08-30T10:10:51.362Z,5.03
2022-08-30T10:14:00.852Z,5.00
2022-08-30T10:17:05.090Z,4.72
2022-08-30T10:20:02.525Z,4.43
2022-08-30T10:22:37.838Z,5.35
2022-08-30T10:25:16.447Z,4.80
2022-08-30T10:27:50.076Z,4.40
2022-08-30T10:30:18.812Z,4.72
2022-08-30T10:33:06.770Z,4.32
2022-08-30T10:35:39.201Z,4.75
2022-08-30T10:38:11.859Z,4.32
2022-08-30T10:41:03.078Z,4.85
2022-08-30T10:44:00.437Z,4.80
2022-08-30T10:46:39.082Z,4.72
2022-08-30T10:49:14.569Z,4.72
2022-08-30T10:52:34.275Z,4.75
2022-08-30T10:55:06.129Z,4.60
2022-08-30T10:57:32.882Z,4.50
2022-08-30T11:00:11.083Z,4.60
2022-08-30T11:03:23.905Z,4.10
2022-08-30T11:06:12.328Z,4.75
2022-08-30T11:08:51.675Z,4.82
2022-08-30T11:11:56.826Z,4.63
2022-08-30T11:14:25.361Z,4.38
2022-08-30T11:16:54.972Z,5.05
2022-08-30T11:22:08.125Z,4.40
2022-08-30T11:25:01.766Z,4.13
2022-08-30T11:27:52.512Z,4.55
2022-08-30T11:30:26.739Z,4.57
2022-08-30T11:32:59.624Z,4.47
2022-08-30T11:35:48.376Z,4.43
2022-08-30T11:38:28.350Z,3.97
2022-08-30T11:40:55.121Z,4.18
2022-08-30T11:43:33.923Z,4.68
2022-08-30T11:46:27.146Z,4.47
2022-08-30T11:49:15.605Z,4.40
2022-08-30T11:52:28.490Z,4.43
2022-08-30T11:55:23.272Z,4.15
2022-08-30T11:58:26.080Z,3.83
2022-08-30T12:01:51.876Z,4.20
2022-08-30T12:04:17.370Z,4.00
2022-08-30T12:06:46.515Z,3.85
2022-08-30T12:09:33.498Z,4.45
2022-08-30T12:12:12.428Z,3.88
2022-08-30T12:14:42.311Z,4.18
2022-08-30T12:17:50.943Z,4.20
2022-08-30T12:20:23.891Z,3.85
2022-08-30T12:22:52.407Z,3.92
2022-08-30T12:25:25.664Z,3.80
2022-08-30T12:28:08.728Z,3.75
2022-08-30T12:30:39.706Z,3.83
2022-08-30T12:33:12.051Z,4.07
2022-08-30T12:35:39.513Z,3.63
2022-08-30T12:38:14.464Z,3.20
2022-08-30T12:40:49.974Z,4.00
2022-08-30T12:43:27.829Z,3.40
2022-08-30T12:46:12.255Z,3.40
2022-08-30T12:48:41.212Z,3.60
2022-08-30T12:51:10.901Z,3.60
2022-08-30T12:53:46.246Z,3.42
2022-08-30T12:56:30.402Z,3.10
2022-08-30T12:59:05.111Z,3.50
2022-08-30T13:01:37.289Z,3.22
2022-08-30T13:04:21.621Z,3.40
2022-08-30T13:06:59.410Z,3.13
2022-08-30T13:09:27.075Z,3.40
2022-08-30T13:11:54.874Z,3.38
2022-08-30T13:14:31.360Z,3.08
2022-08-30T13:17:12.181Z,3.30
2022-08-30T13:19:41.925Z,3.28
2022-08-30T13:23:10.467Z,2.90
2022-08-30T13:25:39.627Z,3.30
2022-08-30T13:28:08.249Z,3.40
2022-08-30T13:30:35.327Z,3.30
2022-08-30T13:33:02.383Z,2.95
2022-08-30T13:35:31.204Z,3.20
2022-08-30T13:37:59.838Z,3.28
2022-08-30T13:40:26.552Z,3.10
2022-08-30T13:42:53.795Z,2.88
2022-08-30T13:48:10.409Z,2.90
2022-08-30T13:50:37.186Z,2.90
2022-08-30T13:53:04.023Z,3.25
2022-08-30T13:55:30.751Z,2.92
2022-08-30T13:57:58.111Z,3.13
2022-08-30T14:00:26.086Z,3.10
2022-08-30T14:02:57.549Z,3.05
2022-08-30T14:11:12.905Z,3.28
2022-08-30T14:16:31.555Z,2.95
2022-08-30T14:19:00.248Z,2.80
2022-08-30T14:21:27.489Z,3.15
2022-08-30T14:23:56.656Z,2.97
2022-08-30T14:26:33.047Z,2.95
2022-08-30T14:29:09.216Z,3.00
2022-08-30T14:31:37.446Z,3.20
2022-08-30T14:34:05.129Z,2.78
2022-08-30T14:36:34.071Z,2.80
2022-08-30T14:39:01.841Z,3.05
2022-08-30T14:41:28.878Z,2.83
2022-08-30T14:43:55.934Z,3.10
2022-08-30T14:46:25.722Z,2.47
2022-08-30T14:48:54.172Z,2.90
2022-08-30T14:51:23.233Z,2.40
2022-08-30T14:53:53.307Z,2.47
2022-08-30T14:56:22.011Z,2.60
2022-08-30T14:58:51.139Z,2.55
2022-08-30T15:01:18.886Z,2.60
2022-08-30T15:03:45.852Z,2.60
2022-08-30T15:06:13.156Z,2.80
2022-08-30T15:08:40.190Z,3.05
2022-08-30T15:11:12.035Z,2.75
2022-08-30T15:13:40.381Z,2.80
2022-08-30T15:16:20.268Z,2.50
2022-08-30T15:18:47.473Z,2.53
2022-08-30T15:21:14.365Z,2.42
2022-08-30T15:23:41.893Z,2.40
2022-08-30T15:26:09.439Z,2.42
2022-08-30T15:28:36.833Z,2.60
2022-08-30T15:31:08.653Z,2.50
2022-08-30T15:33:37.961Z,2.38
2022-08-30T15:36:05.573Z,2.08
2022-08-30T15:38:35.853Z,2.25
2022-08-30T15:41:05.637Z,2.42
2022-08-30T15:43:32.430Z,2.20
2022-08-30T15:46:37.621Z,2.60
2022-08-30T15:49:09.217Z,2.65
2022-08-30T15:51:41.408Z,2.40
2022-08-30T15:54:11.698Z,2.40
2022-08-30T15:56:39.864Z,2.53
2022-08-30T15:59:09.449Z,2.55
2022-08-30T16:01:36.807Z,2.38
2022-08-30T16:04:04.464Z,2.72
2022-08-30T16:06:35.214Z,2.63
2022-08-30T16:09:03.556Z,2.85
2022-08-30T16:11:31.680Z,2.42
2022-08-30T16:13:58.999Z,2.20
2022-08-30T16:16:26.698Z,2.58
2022-08-30T16:18:55.128Z,2.30
2022-08-30T16:21:30.717Z,2.50
2022-08-30T16:24:00.058Z,2.25
2022-08-30T16:26:28.295Z,2.40
2022-08-30T16:28:56.059Z,2.38
2022-08-30T16:31:24.347Z,2.42
2022-08-30T16:33:53.139Z,2.20
2022-08-30T16:36:22.544Z,2.10
2022-08-30T16:38:53.518Z,2.60
2022-08-30T16:41:23.451Z,2.78
2022-08-30T16:43:53.626Z,2.25
2022-08-30T16:46:22.942Z,2.25
2022-08-30T16:48:50.284Z,2.80
2022-08-30T16:51:20.932Z,2.30
2022-08-30T16:53:48.228Z,2.40
2022-08-30T16:56:20.581Z,2.55
2022-08-30T16:58:48.617Z,2.38
2022-08-30T17:01:19.805Z,3.10
2022-08-30T17:03:50.081Z,2.63
2022-08-30T17:06:17.890Z,2.78
2022-08-30T17:08:47.411Z,2.30
2022-08-30T17:11:14.696Z,2.40
2022-08-30T17:13:41.554Z,2.55
2022-08-30T17:16:08.687Z,2.45
2022-08-30T17:18:35.960Z,2.70
2022-08-30T17:21:03.913Z,2.30
2022-08-30T17:23:34.529Z,2.20
2022-08-30T17:26:02.131Z,2.40
2022-08-30T17:28:29.827Z,2.35
2022-08-30T17:30:56.743Z,2.67
2022-08-30T17:33:23.581Z,2.53
2022-08-30T17:35:53.400Z,2.20
2022-08-30T17:38:20.679Z,2.65
2022-08-30T17:40:47.924Z,2.30
2022-08-30T17:43:14.841Z,2.33
2022-08-30T17:45:41.563Z,2.55
2022-08-30T17:48:08.412Z,2.47
2022-08-30T17:50:35.405Z,2.75
2022-08-30T17:53:02.891Z,2.67
2022-08-30T17:55:30.825Z,2.40
2022-08-30T17:57:57.764Z,2.67
2022-08-30T18:00:27.353Z,2.67
2022-08-30T18:02:54.143Z,2.45
2022-08-30T18:08:07.673Z,2.55
2022-08-30T18:10:36.451Z,2.72
2022-08-30T18:13:03.758Z,2.63
2022-08-30T18:15:31.684Z,3.10
2022-08-30T18:17:58.539Z,2.88
2022-08-30T18:20:26.476Z,2.95
2022-08-30T18:22:53.587Z,2.80
2022-08-30T18:25:20.413Z,2.75
2022-08-30T18:27:57.147Z,2.80
2022-08-30T18:30:31.199Z,2.42
2022-08-30T18:33:00.930Z,2.72
2022-08-30T18:35:27.851Z,3.05
2022-08-30T18:37:54.589Z,3.10
2022-08-30T18:40:21.501Z,2.60
2022-08-30T18:42:48.314Z,2.97
2022-08-30T18:48:02.345Z,3.00
2022-08-30T18:50:30.272Z,3.13
2022-08-30T18:52:57.559Z,2.70
2022-08-30T18:55:26.226Z,3.17
2022-08-30T18:57:54.010Z,3.25
2022-08-30T19:00:21.160Z,3.40
2022-08-30T19:02:48.016Z,3.15
2022-08-30T19:05:17.122Z,2.88
2022-08-30T19:07:44.110Z,3.30
2022-08-30T19:10:12.379Z,3.15
2022-08-30T19:12:39.957Z,3.35
2022-08-30T19:15:10.854Z,3.08
2022-08-30T19:17:40.929Z,3.33
2022-08-30T19:20:10.022Z,3.17
2022-08-30T19:23:05.803Z,3.63
2022-08-30T19:25:24.751Z,2.80
2022-08-30T19:27:52.147Z,2.88
2022-08-30T19:30:27.420Z,3.08
2022-08-30T19:32:56.413Z,3.08
2022-08-30T19:35:23.127Z,2.97
2022-08-30T19:37:51.124Z,3.17
2022-08-30T19:40:19.283Z,3.45
2022-08-30T19:42:46.479Z,3.00
2022-08-30T19:45:17.685Z,3.28
2022-08-30T19:47:45.831Z,3.05
2022-08-30T19:50:15.895Z,3.10
2022-08-30T19:52:42.592Z,3.28
2022-08-30T19:55:11.879Z,3.33
2022-08-30T19:57:38.732Z,3.60
2022-08-30T20:00:09.236Z,3.00
2022-08-30T20:02:41.859Z,3.47
2022-08-30T20:05:09.727Z,3.42
2022-08-30T20:07:37.880Z,2.88
2022-08-30T20:10:07.819Z,2.80
2022-08-30T20:12:35.480Z,3.03
2022-08-30T20:15:09.297Z,3.35
2022-08-30T20:18:02.102Z,2.85
2022-08-30T20:20:24.052Z,3.08
2022-08-30T20:22:54.289Z,2.78
2022-08-30T20:24:26.809Z,2.95
2022-08-30T20:24:29.463Z,2.80
2022-08-30T20:25:22.265Z,2.83
2022-08-30T20:27:49.330Z,2.70
2022-08-30T20:30:18.623Z,2.88
2022-08-30T20:32:46.864Z,3.00
2022-08-30T20:35:15.894Z,2.80
2022-08-30T20:37:44.500Z,2.97
2022-08-30T20:40:15.524Z,2.80
2022-08-30T20:42:46.503Z,2.90
2022-08-30T20:45:16.542Z,2.95
2022-08-30T20:47:43.679Z,3.40
2022-08-30T20:50:13.900Z,3.30
2022-08-30T20:52:41.647Z,3.28
2022-08-30T20:55:10.076Z,3.00
2022-08-30T20:57:37.437Z,2.65
2022-08-30T21:00:10.912Z,3.17
2022-08-30T21:02:46.405Z,3.00
2022-08-30T21:05:16.318Z,3.40
2022-08-30T21:07:45.624Z,3.22
2022-08-30T21:10:13.996Z,3.17
2022-08-30T21:12:42.808Z,2.97
2022-08-30T21:15:33.801Z,3.17
2022-08-30T21:17:56.851Z,3.28
2022-08-30T21:20:23.522Z,3.53
2022-08-30T21:22:50.300Z,3.08
2022-08-30T21:25:17.292Z,3.15
2022-08-30T21:27:44.189Z,2.88
2022-08-30T21:30:17.976Z,3.00
2022-08-30T21:32:44.856Z,3.10
2022-08-30T21:35:30.051Z,3.00
2022-08-30T21:37:56.836Z,3.13
2022-08-30T21:40:23.565Z,2.72
2022-08-30T21:42:50.297Z,3.28
2022-08-30T21:45:17.112Z,3.10
2022-08-30T21:47:44.014Z,3.25
2022-08-30T21:50:11.970Z,2.92
2022-08-30T21:52:38.864Z,2.92
2022-08-30T21:55:05.891Z,3.17
2022-08-30T21:57:32.956Z,2.90
2022-08-30T21:59:59.853Z,2.83
2022-08-30T22:02:27.225Z,3.28
2022-08-30T22:04:54.536Z,3.28
2022-08-30T22:07:21.214Z,3.00
2022-08-30T22:09:48.049Z,2.60
2022-08-30T22:12:14.832Z,2.70
2022-08-30T22:14:41.620Z,3.10
2022-08-30T22:17:08.418Z,3.28
2022-08-30T22:19:35.147Z,2.92
2022-08-30T22:22:02.007Z,2.83
2022-08-30T22:24:32.394Z,2.90
2022-08-30T22:27:01.515Z,3.17
2022-08-30T22:29:30.117Z,2.90
2022-08-30T22:31:56.928Z,2.70
2022-08-30T22:34:23.790Z,2.50
2022-08-30T22:36:50.893Z,2.78
2022-08-30T22:39:18.243Z,2.65
2022-08-30T22:41:45.160Z,2.50
2022-08-30T22:44:12.158Z,2.70
2022-08-30T22:46:39.520Z,2.50
2022-08-30T22:49:09.144Z,2.80
2022-08-30T22:51:37.028Z,2.95
2022-08-30T22:54:06.943Z,2.85
2022-08-30T22:56:35.671Z,2.63
2022-08-30T22:59:02.922Z,2.67
2022-08-30T23:01:34.043Z,2.70
2022-08-30T23:04:01.578Z,2.63
2022-08-30T23:06:29.493Z,2.50
2022-08-30T23:08:57.207Z,2.70
2022-08-30T23:11:24.118Z,2.72
2022-08-30T23:13:50.938Z,3.13
2022-08-30T23:16:18.701Z,2.33
2022-08-30T23:18:46.712Z,2.67
2022-08-30T23:21:26.218Z,2.65
2022-08-30T23:24:14.018Z,2.63
2022-08-30T23:27:01.315Z,2.50
2022-08-30T23:29:49.119Z,2.90
2022-08-30T23:32:34.448Z,2.90
2022-08-30T23:35:19.857Z,2.92
2022-08-30T23:38:10.262Z,2.95
2022-08-30T23:40:55.535Z,2.70
2022-08-30T23:43:41.185Z,2.47
2022-08-30T23:46:26.693Z,2.65
2022-08-30T23:49:12.168Z,2.53
2022-08-30T23:51:57.524Z,2.60
2022-08-30T23:54:43.920Z,3.08
2022-08-30T23:57:29.169Z,2.40
